createdAt,value
2023-04-08T00:02:19.832Z,23.40
2023-04-08T00:04:48.241Z,22.47
2023-04-08T00:07:16.608Z,26.57
2023-04-08T00:09:44.894Z,25.17
2023-04-08T00:12:13.370Z,24.27
2023-04-08T00:14:41.847Z,24.87
2023-04-08T00:17:10.766Z,24.27
2023-04-08T00:19:40.667Z,23.73
2023-04-08T00:22:08.965Z,25.53
2023-04-08T00:24:37.448Z,29.77
2023-04-08T00:27:05.815Z,23.47
2023-04-08T00:29:34.076Z,25.43
2023-04-08T00:32:03.050Z,27.30
2023-04-08T00:34:31.361Z,27.10
2023-04-08T00:37:01.284Z,25.27
2023-04-08T00:39:29.601Z,29.30
2023-04-08T00:41:57.919Z,25.73
2023-04-08T00:44:26.445Z,22.00
2023-04-08T00:46:54.851Z,26.57
2023-04-08T00:49:23.155Z,25.10
2023-04-08T00:51:51.639Z,24.93
2023-04-08T00:54:21.354Z,27.07
2023-04-08T00:56:49.702Z,23.97
2023-04-08T00:59:19.673Z,31.13
2023-04-08T01:01:56.633Z,27.50
2023-04-08T01:04:30.865Z,25.07
2023-04-08T01:07:05.350Z,25.00
2023-04-08T01:09:39.570Z,23.27
2023-04-08T01:12:10.678Z,23.80
2023-04-08T01:14:43.588Z,24.57
2023-04-08T01:17:12.478Z,24.80
2023-04-08T01:19:44.951Z,24.70
2023-04-08T01:22:21.031Z,30.43
2023-04-08T01:24:53.341Z,26.07
2023-04-08T01:27:23.213Z,26.60
2023-04-08T01:29:54.222Z,27.80
2023-04-08T01:32:22.947Z,29.20
2023-04-08T01:34:51.635Z,27.63
2023-04-08T01:37:20.865Z,27.07
2023-04-08T01:39:50.719Z,28.23
2023-04-08T01:42:19.416Z,27.90
2023-04-08T01:44:49.568Z,30.17
2023-04-08T01:47:17.959Z,26.80
2023-04-08T01:49:46.646Z,24.43
2023-04-08T01:52:15.961Z,26.57
2023-04-08T01:54:44.224Z,26.37
2023-04-08T01:57:15.797Z,24.47
2023-04-08T01:59:44.737Z,27.63
2023-04-08T02:02:16.609Z,25.77
2023-04-08T02:04:45.114Z,27.70
2023-04-08T02:07:14.026Z,25.90
2023-04-08T02:09:42.386Z,29.63
2023-04-08T02:12:10.706Z,27.67
2023-04-08T02:14:39.319Z,26.67
2023-04-08T02:17:11.532Z,29.17
2023-04-08T02:19:47.988Z,28.47
2023-04-08T02:22:24.994Z,28.03
2023-04-08T02:24:53.968Z,27.80
2023-04-08T02:27:23.475Z,28.27
2023-04-08T02:29:54.433Z,28.17
2023-04-08T02:32:25.100Z,27.30
2023-04-08T02:34:56.045Z,29.03
2023-04-08T02:37:24.364Z,27.47
2023-04-08T02:39:52.645Z,30.53
2023-04-08T02:42:21.424Z,26.57
2023-04-08T02:44:49.691Z,32.33
2023-04-08T02:47:18.084Z,27.53
2023-04-08T02:49:46.469Z,30.87
2023-04-08T02:52:16.114Z,32.73
2023-04-08T02:54:44.463Z,30.77
2023-04-08T02:57:13.104Z,30.03
2023-04-08T02:59:41.529Z,28.53
2023-04-08T03:02:09.922Z,29.30
2023-04-08T03:04:38.282Z,28.43
2023-04-08T03:07:08.526Z,30.83
2023-04-08T03:09:38.756Z,29.70
2023-04-08T03:12:07.315Z,33.00
2023-04-08T03:14:35.628Z,31.73
2023-04-08T03:17:03.938Z,27.13
2023-04-08T03:19:32.278Z,29.03
2023-04-08T03:22:00.624Z,27.90
2023-04-08T03:24:28.916Z,26.10
2023-04-08T03:26:59.150Z,27.93
2023-04-08T03:29:27.451Z,29.57
2023-04-08T03:31:55.978Z,29.33
2023-04-08T03:34:24.437Z,27.67
2023-04-08T03:36:52.715Z,29.93
2023-04-08T03:39:21.188Z,33.50
2023-04-08T03:41:49.516Z,32.33
2023-04-08T03:44:19.260Z,29.63
2023-04-08T03:46:47.509Z,29.57
2023-04-08T03:49:15.804Z,36.13
2023-04-08T03:51:44.077Z,32.33
2023-04-08T03:54:12.419Z,27.80
2023-04-08T03:56:40.967Z,29.60
2023-04-08T03:59:09.252Z,31.83
2023-04-08T04:01:40.575Z,30.77
2023-04-08T04:04:10.361Z,29.50
2023-04-08T04:06:38.958Z,30.13
2023-04-08T04:09:07.287Z,29.43
2023-04-08T04:11:36.462Z,29.73
2023-04-08T04:14:04.967Z,28.70
2023-04-08T04:16:33.350Z,31.10
2023-04-08T04:19:03.215Z,31.47
2023-04-08T04:21:31.638Z,33.23
2023-04-08T04:23:59.941Z,30.83
2023-04-08T04:26:28.286Z,29.53
2023-04-08T04:28:56.848Z,32.70
2023-04-08T04:31:26.751Z,34.53
2023-04-08T04:33:55.564Z,32.83
2023-04-08T04:36:25.614Z,29.33
2023-04-08T04:38:54.169Z,32.03
2023-04-08T04:41:23.000Z,32.83
2023-04-08T04:43:51.322Z,30.73
2023-04-08T04:46:19.737Z,33.20
2023-04-08T04:48:48.178Z,31.30
2023-04-08T04:51:16.497Z,32.27
2023-04-08T04:53:46.141Z,29.37
2023-04-08T04:56:14.495Z,29.63
2023-04-08T04:58:42.949Z,29.77
2023-04-08T05:01:11.248Z,31.70
2023-04-08T05:03:40.036Z,31.17
2023-04-08T05:06:08.401Z,29.87
2023-04-08T05:08:36.727Z,34.23
2023-04-08T05:11:10.406Z,37.03
2023-04-08T05:13:38.715Z,35.53
2023-04-08T05:16:07.826Z,33.00
2023-04-08T05:18:36.189Z,31.20
2023-04-08T05:21:04.605Z,33.13
2023-04-08T05:23:32.963Z,35.40
2023-04-08T05:26:01.441Z,30.73
2023-04-08T05:28:31.535Z,33.23
2023-04-08T05:30:59.831Z,31.93
2023-04-08T05:33:28.184Z,33.43
2023-04-08T05:35:56.809Z,36.77
2023-04-08T05:38:25.174Z,33.50
2023-04-08T05:40:53.404Z,33.60
2023-04-08T05:43:21.674Z,33.80
2023-04-08T05:45:51.677Z,33.63
2023-04-08T05:48:19.925Z,32.90
2023-04-08T05:50:48.725Z,34.87
2023-04-08T05:53:17.004Z,35.43
2023-04-08T05:55:45.506Z,35.70
2023-04-08T05:58:13.796Z,32.53
2023-04-08T06:00:42.110Z,36.77
2023-04-08T06:03:12.011Z,32.70
2023-04-08T06:05:40.629Z,30.90
2023-04-08T06:08:08.957Z,34.30
2023-04-08T06:10:38.306Z,36.53
2023-04-08T06:13:06.643Z,34.40
2023-04-08T06:15:34.914Z,31.80
2023-04-08T06:18:03.263Z,33.63
2023-04-08T06:20:33.292Z,33.03
2023-04-08T06:23:01.708Z,36.03
2023-04-08T06:25:30.115Z,31.90
2023-04-08T06:27:58.477Z,37.43
2023-04-08T06:30:26.819Z,37.23
2023-04-08T06:32:55.454Z,31.97
2023-04-08T06:35:23.917Z,37.47
2023-04-08T06:37:53.689Z,32.70
2023-04-08T06:40:22.204Z,34.13
2023-04-08T06:42:50.780Z,36.60
2023-04-08T06:45:19.140Z,33.10
2023-04-08T06:47:47.545Z,30.90
2023-04-08T06:50:18.690Z,34.03
2023-04-08T06:52:47.061Z,31.83
2023-04-08T06:55:16.909Z,28.80
2023-04-08T06:57:45.333Z,30.17
2023-04-08T07:00:14.476Z,27.97
2023-04-08T07:02:42.874Z,28.30
2023-04-08T07:05:11.443Z,28.23
2023-04-08T07:07:39.708Z,29.53
2023-04-08T07:10:10.921Z,27.23
2023-04-08T07:12:41.249Z,29.43
2023-04-08T07:15:10.832Z,23.87
2023-04-08T07:17:39.628Z,24.47
2023-04-08T07:20:09.279Z,25.40
2023-04-08T07:22:37.759Z,27.10
2023-04-08T07:25:06.704Z,27.13
2023-04-08T07:27:35.391Z,25.07
2023-04-08T07:30:06.008Z,27.23
2023-04-08T07:32:34.927Z,26.20
2023-04-08T07:35:04.039Z,28.43
2023-04-08T07:37:32.561Z,26.27
2023-04-08T07:40:00.913Z,22.43
2023-04-08T07:42:29.202Z,22.60
2023-04-08T07:44:57.621Z,22.80
2023-04-08T07:47:27.399Z,24.60
2023-04-08T07:49:55.803Z,24.30
2023-04-08T07:52:24.067Z,22.20
2023-04-08T07:54:52.367Z,22.27
2023-04-08T07:57:21.354Z,22.17
2023-04-08T07:59:49.912Z,20.70
2023-04-08T08:02:18.669Z,20.03
2023-04-08T08:04:48.489Z,27.63
2023-04-08T08:07:16.822Z,23.87
2023-04-08T08:09:45.108Z,22.30
2023-04-08T08:12:13.406Z,26.73
2023-04-08T08:14:41.713Z,23.57
2023-04-08T08:17:10.009Z,22.70
2023-04-08T08:19:38.336Z,22.57
2023-04-08T08:22:08.094Z,19.83
2023-04-08T08:24:36.389Z,25.90
2023-04-08T08:27:06.472Z,19.30
2023-04-08T08:29:34.827Z,23.63
2023-04-08T08:32:03.733Z,19.17
2023-04-08T08:34:32.130Z,21.50
2023-04-08T08:37:00.512Z,23.30
2023-04-08T08:39:30.805Z,19.60
2023-04-08T08:41:59.097Z,20.67
2023-04-08T08:44:28.005Z,22.73
2023-04-08T08:49:38.624Z,23.80
2023-04-08T08:52:07.600Z,21.23
2023-04-08T08:54:37.764Z,20.83
2023-04-08T08:57:06.261Z,20.90
2023-04-08T08:59:35.156Z,19.43
2023-04-08T09:02:25.605Z,23.17
2023-04-08T09:04:59.937Z,18.17
2023-04-08T09:07:28.850Z,22.33
2023-04-08T09:10:00.731Z,19.53
2023-04-08T09:12:30.860Z,20.07
2023-04-08T09:15:06.976Z,18.50
2023-04-08T09:17:37.546Z,21.47
2023-04-08T09:20:11.482Z,17.67
2023-04-08T09:22:59.701Z,16.67
2023-04-08T09:25:30.839Z,18.10
2023-04-08T09:30:53.112Z,17.00
2023-04-08T09:33:21.473Z,22.53
2023-04-08T09:35:49.961Z,21.70
2023-04-08T09:38:18.291Z,19.80
2023-04-08T09:40:48.023Z,21.83
2023-04-08T09:43:22.801Z,22.60
2023-04-08T09:45:51.890Z,19.00
2023-04-08T09:48:26.090Z,19.43
2023-04-08T09:51:01.024Z,20.67
2023-04-08T09:53:36.715Z,23.27
2023-04-08T09:56:11.680Z,17.37
2023-04-08T09:59:00.815Z,19.83
2023-04-08T10:01:39.480Z,17.90
2023-04-08T10:04:13.615Z,19.23
2023-04-08T10:06:43.086Z,19.93
2023-04-08T10:09:12.040Z,19.77
2023-04-08T10:11:41.988Z,18.53
2023-04-08T10:14:11.557Z,20.77
2023-04-08T10:16:39.896Z,19.77
2023-04-08T10:19:40.559Z,18.10
2023-04-08T10:22:42.316Z,19.07
2023-04-08T10:25:29.914Z,20.70
2023-04-08T10:28:00.342Z,19.07
2023-04-08T10:30:45.021Z,17.37
2023-04-08T10:33:16.414Z,17.53
2023-04-08T10:35:49.813Z,19.30
2023-04-08T10:38:19.661Z,19.97
2023-04-08T10:40:50.020Z,20.90
2023-04-08T10:43:19.873Z,16.40
2023-04-08T10:45:51.592Z,17.30
2023-04-08T10:48:22.537Z,18.83
2023-04-08T10:50:58.085Z,18.60
2023-04-08T10:53:28.997Z,20.43
2023-04-08T10:56:06.386Z,18.77
2023-04-08T10:58:51.525Z,19.20
2023-04-08T11:01:28.726Z,19.30
2023-04-08T11:04:01.368Z,17.97
2023-04-08T11:06:32.259Z,18.27
2023-04-08T11:09:04.297Z,20.00
2023-04-08T11:11:33.166Z,19.00
2023-04-08T11:14:03.353Z,18.33
2023-04-08T11:16:32.640Z,18.17
2023-04-08T11:19:01.108Z,19.83
2023-04-08T11:21:30.785Z,18.37
2023-04-08T11:23:59.505Z,21.67
2023-04-08T11:26:28.970Z,16.60
2023-04-08T11:28:58.623Z,17.53
2023-04-08T11:31:29.618Z,19.73
2023-04-08T11:33:58.552Z,18.73
2023-04-08T11:36:27.799Z,17.27
2023-04-08T11:38:59.066Z,17.93
2023-04-08T11:41:37.868Z,18.40
2023-04-08T11:44:06.830Z,16.97
2023-04-08T11:46:37.290Z,19.17
2023-04-08T11:49:07.949Z,16.17
2023-04-08T11:51:54.997Z,18.50
2023-04-08T11:54:30.053Z,16.33
2023-04-08T11:56:59.130Z,17.20
2023-04-08T11:59:29.673Z,18.17
2023-04-08T12:02:00.202Z,15.90
2023-04-08T12:04:28.664Z,18.27
2023-04-08T12:06:58.299Z,17.83
2023-04-08T12:09:27.385Z,17.67
2023-04-08T12:11:56.802Z,16.13
2023-04-08T12:14:28.111Z,14.30
2023-04-08T12:16:56.895Z,13.70
2023-04-08T12:19:27.108Z,17.47
2023-04-08T12:21:55.466Z,13.30
2023-04-08T12:24:23.764Z,13.37
2023-04-08T12:26:52.238Z,16.47
2023-04-08T12:29:20.595Z,14.97
2023-04-08T12:31:48.965Z,17.80
2023-04-08T12:34:18.236Z,15.40
2023-04-08T12:36:52.525Z,15.00
2023-04-08T12:39:21.096Z,17.95
2023-04-08T12:41:52.525Z,16.13
2023-04-08T12:44:21.012Z,14.90
2023-04-08T12:46:49.530Z,16.38
2023-04-08T12:49:24.439Z,14.25
2023-04-08T12:51:55.094Z,17.13
2023-04-08T12:54:23.507Z,13.48
2023-04-08T12:56:52.007Z,15.68
2023-04-08T13:02:02.804Z,13.77
2023-04-08T13:04:31.120Z,15.45
2023-04-08T13:07:01.127Z,17.30
2023-04-08T13:09:30.622Z,14.38
2023-04-08T13:11:59.710Z,14.48
2023-04-08T13:14:28.821Z,15.93
2023-04-08T13:17:00.114Z,13.85
2023-04-08T13:19:28.364Z,15.20
2023-04-08T13:21:56.760Z,15.48
2023-04-08T13:24:26.576Z,18.02
2023-04-08T13:26:54.914Z,13.00
2023-04-08T13:29:23.202Z,15.98
2023-04-08T13:32:27.301Z,14.70
2023-04-08T13:34:55.610Z,15.67
2023-04-08T13:37:23.991Z,17.27
2023-04-08T13:39:53.632Z,14.83
2023-04-08T13:42:22.284Z,14.33
2023-04-08T13:44:50.601Z,15.87
2023-04-08T13:47:19.042Z,13.83
2023-04-08T13:49:47.299Z,13.23
2023-04-08T13:52:15.748Z,15.32
2023-04-08T13:54:44.096Z,13.57
2023-04-08T13:57:13.851Z,14.50
2023-04-08T13:59:43.948Z,12.75
2023-04-08T14:02:13.254Z,14.60
2023-04-08T14:04:41.742Z,17.42
2023-04-08T14:07:10.579Z,13.88
2023-04-08T14:09:39.159Z,15.63
2023-04-08T14:12:07.571Z,17.83
2023-04-08T14:14:37.315Z,14.23
2023-04-08T14:17:06.090Z,12.47
2023-04-08T14:19:34.617Z,13.57
2023-04-08T14:22:03.241Z,13.23
2023-04-08T14:24:31.611Z,13.90
2023-04-08T14:26:59.977Z,14.50
2023-04-08T14:29:28.508Z,13.70
2023-04-08T14:31:59.706Z,14.63
2023-04-08T14:34:28.166Z,14.57
2023-04-08T14:37:02.571Z,13.03
2023-04-08T14:39:31.124Z,16.43
2023-04-08T14:41:59.400Z,15.27
2023-04-08T14:44:27.636Z,13.63
2023-04-08T14:46:57.437Z,15.03
2023-04-08T14:49:25.715Z,13.93
2023-04-08T14:51:54.392Z,20.27
2023-04-08T14:54:22.724Z,16.90
2023-04-08T14:56:51.076Z,14.77
2023-04-08T14:59:19.447Z,16.40
2023-04-08T15:01:47.895Z,17.00
2023-04-08T15:04:17.819Z,17.17
2023-04-08T15:06:46.233Z,20.23
2023-04-08T15:09:14.604Z,16.63
2023-04-08T15:11:42.933Z,14.40
2023-04-08T15:14:11.765Z,14.47
2023-04-08T15:16:40.141Z,17.47
2023-04-08T15:19:08.818Z,25.83
2023-04-08T15:21:38.568Z,24.57
2023-04-08T15:24:10.808Z,21.43
2023-04-08T15:26:39.083Z,26.00
2023-04-08T15:29:07.456Z,21.23
2023-04-08T15:31:36.249Z,24.67
2023-04-08T15:34:04.762Z,25.60
2023-04-08T15:36:36.042Z,22.67
2023-04-08T15:39:06.196Z,19.17
2023-04-08T15:41:34.631Z,20.47
2023-04-08T15:44:03.085Z,21.73
2023-04-08T15:46:31.822Z,41.67
2023-04-08T15:49:01.387Z,30.63
2023-04-08T15:51:29.912Z,23.87
2023-04-08T15:53:58.216Z,23.43
2023-04-08T15:56:29.626Z,18.10
2023-04-08T15:58:58.509Z,22.80
2023-04-08T16:01:26.877Z,18.83
2023-04-08T16:03:55.510Z,23.27
2023-04-08T16:06:23.983Z,20.97
2023-04-08T16:08:52.760Z,27.57
2023-04-08T16:11:22.067Z,22.20
2023-04-08T16:13:52.042Z,21.70
2023-04-08T16:16:20.796Z,22.73
2023-04-08T16:18:49.302Z,20.23
2023-04-08T16:21:18.652Z,22.50
2023-04-08T16:23:47.081Z,24.13
2023-04-08T16:26:15.665Z,39.50
2023-04-08T16:28:44.038Z,20.47
2023-04-08T16:31:13.912Z,20.40
2023-04-08T16:33:42.298Z,23.37
2023-04-08T16:36:10.984Z,25.87
2023-04-08T16:38:39.399Z,26.50
2023-04-08T16:41:10.187Z,25.90
2023-04-08T16:43:39.037Z,24.00
2023-04-08T16:46:17.384Z,22.20
2023-04-08T16:48:45.811Z,27.33
2023-04-08T16:51:14.102Z,17.00
2023-04-08T16:53:42.696Z,17.70
2023-04-08T16:56:15.898Z,18.63
2023-04-08T16:58:44.368Z,19.23
2023-04-08T17:01:14.642Z,17.30
2023-04-08T17:03:43.092Z,18.80
2023-04-08T17:06:13.721Z,19.93
2023-04-08T17:08:43.550Z,19.30
2023-04-08T17:11:13.932Z,23.50
2023-04-08T17:13:44.365Z,17.87
2023-04-08T17:16:15.849Z,22.60
2023-04-08T17:18:45.922Z,20.47
2023-04-08T17:21:15.671Z,19.53
2023-04-08T17:23:44.090Z,24.43
2023-04-08T17:26:12.946Z,23.63
2023-04-08T17:28:43.297Z,25.83
2023-04-08T17:31:11.912Z,22.17
2023-04-08T17:33:41.702Z,27.47
2023-04-08T17:36:10.277Z,23.63
2023-04-08T17:38:40.091Z,24.50
2023-04-08T17:41:10.197Z,28.20
2023-04-08T17:43:38.646Z,31.53
2023-04-08T17:46:07.138Z,31.23
2023-04-08T17:48:35.634Z,26.30
2023-04-08T17:51:07.707Z,28.03
2023-04-08T17:53:36.128Z,25.07
2023-04-08T17:56:05.916Z,25.23
2023-04-08T17:58:34.254Z,27.43
2023-04-08T18:01:02.648Z,23.47
2023-04-08T18:03:31.146Z,24.03
2023-04-08T18:06:11.212Z,22.93
2023-04-08T18:08:39.575Z,21.83
2023-04-08T18:11:08.200Z,20.80
2023-04-08T18:13:36.689Z,23.43
2023-04-08T18:16:05.170Z,22.20
2023-04-08T18:18:33.596Z,24.83
2023-04-08T18:21:01.899Z,24.47
2023-04-08T18:23:31.730Z,25.37
2023-04-08T18:26:00.141Z,27.50
2023-04-08T18:28:28.947Z,25.03
2023-04-08T18:30:57.393Z,27.10
2023-04-08T18:33:26.030Z,26.53
2023-04-08T18:35:54.658Z,26.70
2023-04-08T18:38:23.265Z,30.70
2023-04-08T18:40:53.055Z,25.90
2023-04-08T18:43:21.646Z,30.97
2023-04-08T18:45:50.096Z,32.77
2023-04-08T18:48:18.422Z,34.00
2023-04-08T18:50:47.085Z,29.93
2023-04-08T18:53:15.464Z,31.73
2023-04-08T18:55:44.950Z,35.53
2023-04-08T18:58:14.844Z,36.77
2023-04-08T19:00:43.897Z,35.90
2023-04-08T19:03:12.504Z,30.00
2023-04-08T19:05:41.059Z,34.17
2023-04-08T19:08:09.460Z,34.73
2023-04-08T19:10:37.813Z,31.03
2023-04-08T19:13:06.113Z,31.23
2023-04-08T19:15:35.835Z,27.40
2023-04-08T19:18:04.326Z,30.60
2023-04-08T19:20:32.945Z,31.87
2023-04-08T19:23:01.294Z,33.97
2023-04-08T19:25:29.602Z,33.37
2023-04-08T19:27:57.959Z,31.37
2023-04-08T19:30:26.504Z,39.97
2023-04-08T19:32:56.349Z,40.70
2023-04-08T19:35:25.355Z,33.17
2023-04-08T19:37:54.117Z,34.67
2023-04-08T19:40:22.592Z,36.47
2023-04-08T19:42:50.932Z,30.53
2023-04-08T19:45:19.663Z,37.33
2023-04-08T19:47:49.213Z,35.10
2023-04-08T19:50:21.261Z,35.40
2023-04-08T19:52:49.642Z,30.40
2023-04-08T19:55:18.127Z,30.80
2023-04-08T19:57:46.502Z,34.70
2023-04-08T20:00:15.128Z,31.83
2023-04-08T20:02:43.759Z,29.40
2023-04-08T20:05:16.218Z,34.03
2023-04-08T20:07:45.968Z,40.40
2023-04-08T20:10:14.650Z,40.07
2023-04-08T20:12:43.155Z,37.00
2023-04-08T20:15:23.554Z,36.93
2023-04-08T20:17:53.325Z,47.20
2023-04-08T20:20:21.935Z,45.63
2023-04-08T20:22:51.703Z,38.23
2023-04-08T20:25:20.211Z,35.83
2023-04-08T20:27:48.570Z,38.50
2023-04-08T20:30:16.945Z,34.50
2023-04-08T20:32:45.419Z,37.13
2023-04-08T20:35:14.032Z,36.73
2023-04-08T20:37:42.420Z,32.97
2023-04-08T20:40:12.823Z,34.07
2023-04-08T20:42:41.204Z,42.77
2023-04-08T20:45:11.068Z,41.83
2023-04-08T20:47:40.667Z,37.13
2023-04-08T20:50:10.284Z,42.77
2023-04-08T20:52:38.812Z,35.80
2023-04-08T20:55:08.211Z,42.07
2023-04-08T20:57:38.048Z,37.67
2023-04-08T21:00:07.706Z,37.03
2023-04-08T21:02:36.527Z,41.10
2023-04-08T21:05:11.794Z,36.97
2023-04-08T21:07:44.450Z,40.63
2023-04-08T21:10:14.319Z,38.83
2023-04-08T21:12:44.870Z,38.87
2023-04-08T21:15:13.318Z,39.93
2023-04-08T21:17:41.689Z,38.07
2023-04-08T21:20:11.276Z,37.13
2023-04-08T21:22:39.607Z,40.03
2023-04-08T21:25:08.661Z,36.80
2023-04-08T21:27:37.743Z,40.20
2023-04-08T21:30:08.698Z,43.03
2023-04-08T21:32:37.061Z,38.63
2023-04-08T21:35:05.889Z,40.20
2023-04-08T21:37:34.681Z,43.30
2023-04-08T21:40:04.123Z,41.23
2023-04-08T21:42:33.041Z,41.23
2023-04-08T21:45:01.572Z,40.03
2023-04-08T21:47:32.092Z,36.60
2023-04-08T21:50:00.794Z,39.93
2023-04-08T21:52:29.080Z,35.50
2023-04-08T21:54:57.467Z,36.80
2023-04-08T21:57:25.846Z,42.47
2023-04-08T21:59:54.141Z,34.50
2023-04-08T22:02:22.614Z,34.00
2023-04-08T22:04:52.744Z,41.33
2023-04-08T22:07:21.142Z,36.37
2023-04-08T22:09:49.535Z,34.93
2023-04-08T22:12:17.832Z,36.10
2023-04-08T22:14:46.133Z,37.30
2023-04-08T22:17:14.486Z,39.37
2023-04-08T22:19:42.806Z,35.10
2023-04-08T22:22:12.574Z,36.83
2023-04-08T22:24:40.864Z,30.97
2023-04-08T22:27:09.366Z,30.83
2023-04-08T22:29:37.676Z,32.83
2023-04-08T22:32:06.264Z,36.40
2023-04-08T22:34:34.494Z,35.80
2023-04-08T22:37:03.020Z,37.37
2023-04-08T22:39:32.736Z,35.17
2023-04-08T22:42:01.142Z,31.13
2023-04-08T22:44:29.453Z,32.70
2023-04-08T22:46:57.801Z,36.80
2023-04-08T22:49:26.108Z,36.53
2023-04-08T22:51:54.433Z,36.27
2023-04-08T22:54:22.741Z,36.60
2023-04-08T22:56:52.389Z,33.87
2023-04-08T22:59:20.756Z,34.60
2023-04-08T23:01:49.215Z,36.30
2023-04-08T23:04:17.721Z,36.60
2023-04-08T23:06:46.077Z,35.43
2023-04-08T23:09:14.468Z,37.30
2023-04-08T23:11:42.808Z,33.63
2023-04-08T23:14:12.669Z,39.73
2023-04-08T23:16:40.926Z,32.50
2023-04-08T23:19:09.225Z,31.90
2023-04-08T23:21:37.548Z,36.23
2023-04-08T23:24:06.731Z,34.63
2023-04-08T23:26:35.054Z,34.03
2023-04-08T23:29:03.452Z,36.13
2023-04-08T23:31:33.308Z,33.87
2023-04-08T23:34:01.690Z,32.13
2023-04-08T23:36:30.053Z,33.87
2023-04-08T23:38:58.453Z,37.77
2023-04-08T23:41:26.885Z,39.37
2023-04-08T23:43:55.272Z,35.03
2023-04-08T23:46:23.601Z,35.07
2023-04-08T23:48:53.468Z,34.07
2023-04-08T23:51:22.017Z,30.57
2023-04-08T23:53:51.813Z,36.90
2023-04-08T23:56:20.110Z,31.07
2023-04-08T23:58:48.418Z,36.70
